createdAt,value
2024-01-06T00:02:45.989Z,85.69
2024-01-06T00:07:50.957Z,85.20
2024-01-06T00:12:54.541Z,84.96
2024-01-06T00:17:58.067Z,85.14
2024-01-06T00:23:04.030Z,85.37
2024-01-06T00:28:07.449Z,85.36
2024-01-06T00:33:11.043Z,85.56
2024-01-06T00:38:14.696Z,85.74
2024-01-06T00:43:20.793Z,85.62
2024-01-06T00:48:24.362Z,85.65
2024-01-06T00:53:28.630Z,85.80
2024-01-06T00:58:32.178Z,85.97
2024-01-06T01:03:35.713Z,86.16
2024-01-06T01:08:39.256Z,86.19
2024-01-06T01:13:42.962Z,86.49
2024-01-06T01:18:46.397Z,86.57
2024-01-06T01:23:49.845Z,86.59
2024-01-06T01:28:53.262Z,86.72
2024-01-06T01:33:56.753Z,87.01
2024-01-06T01:39:00.511Z,87.14
2024-01-06T01:44:04.605Z,87.06
2024-01-06T01:49:08.222Z,86.57
2024-01-06T01:54:11.880Z,86.48
2024-01-06T01:59:19.167Z,86.29
2024-01-06T02:04:22.662Z,85.71
2024-01-06T02:09:28.778Z,85.65
2024-01-06T02:14:34.122Z,85.69
2024-01-06T02:19:37.593Z,85.29
2024-01-06T02:24:41.512Z,84.76
2024-01-06T02:29:44.970Z,84.75
2024-01-06T02:34:49.539Z,84.54
2024-01-06T02:39:54.617Z,84.82
2024-01-06T02:44:58.070Z,84.49
2024-01-06T02:50:01.827Z,84.22
2024-01-06T02:55:06.237Z,84.17
2024-01-06T03:00:10.433Z,83.77
2024-01-06T03:05:14.137Z,84.20
2024-01-06T03:10:17.518Z,83.87
2024-01-06T03:15:21.020Z,83.78
2024-01-06T03:20:24.525Z,83.84
2024-01-06T03:25:28.099Z,84.06
2024-01-06T03:30:31.629Z,84.61
2024-01-06T03:35:35.328Z,84.63
2024-01-06T03:40:38.799Z,84.62
2024-01-06T03:45:42.411Z,84.45
2024-01-06T03:50:45.880Z,84.37
2024-01-06T03:55:49.237Z,84.26
2024-01-06T04:00:52.818Z,84.09
2024-01-06T04:05:56.503Z,84.25
2024-01-06T04:10:59.992Z,84.30
2024-01-06T04:16:04.250Z,84.45
2024-01-06T04:21:08.077Z,84.41
2024-01-06T04:26:12.443Z,84.17
2024-01-06T04:31:16.086Z,83.80
2024-01-06T04:36:19.692Z,84.20
2024-01-06T04:41:23.217Z,83.88
2024-01-06T04:46:26.783Z,83.51
2024-01-06T04:51:30.316Z,83.61
2024-01-06T04:56:36.506Z,84.62
2024-01-06T05:01:40.572Z,84.65
2024-01-06T05:06:44.092Z,84.41
2024-01-06T05:11:47.634Z,83.91
2024-01-06T05:16:51.121Z,83.92
2024-01-06T05:21:54.958Z,83.88
2024-01-06T05:26:58.843Z,83.68
2024-01-06T05:32:02.269Z,83.86
2024-01-06T05:37:05.724Z,84.29
2024-01-06T05:42:14.591Z,84.28
2024-01-06T05:47:18.385Z,83.86
2024-01-06T05:52:21.816Z,84.28
2024-01-06T05:57:25.487Z,84.65
2024-01-06T06:02:29.381Z,84.56
2024-01-06T06:07:32.814Z,84.51
2024-01-06T06:12:37.186Z,84.75
2024-01-06T06:17:41.530Z,84.87
2024-01-06T06:22:45.055Z,84.95
2024-01-06T06:27:48.589Z,84.99
2024-01-06T06:32:52.343Z,85.16
2024-01-06T06:37:56.529Z,85.26
2024-01-06T06:42:59.894Z,85.38
2024-01-06T06:48:03.733Z,85.49
2024-01-06T06:53:07.316Z,85.50
2024-01-06T06:58:10.821Z,85.54
2024-01-06T07:03:16.030Z,85.58
2024-01-06T07:08:19.756Z,85.58
2024-01-06T07:13:23.183Z,85.61
2024-01-06T07:18:29.352Z,85.60
2024-01-06T07:23:34.316Z,85.66
2024-01-06T07:28:37.896Z,85.64
2024-01-06T07:33:41.926Z,85.57
2024-01-06T07:38:47.441Z,85.25
2024-01-06T07:43:59.474Z,84.91
2024-01-06T07:49:03.713Z,84.64
2024-01-06T07:54:10.175Z,84.57
2024-01-06T07:59:17.219Z,84.20
2024-01-06T08:04:21.569Z,84.05
2024-01-06T08:09:25.122Z,83.21
2024-01-06T08:14:28.809Z,82.18
2024-01-06T08:19:34.132Z,78.51
2024-01-06T08:24:37.708Z,73.72
2024-01-06T08:29:41.333Z,71.79
2024-01-06T08:34:44.860Z,67.88
2024-01-06T08:39:49.236Z,64.26
2024-01-06T08:44:53.054Z,62.37
2024-01-06T08:49:56.500Z,59.49
2024-01-06T08:55:01.414Z,61.55
2024-01-06T09:00:10.610Z,61.78
2024-01-06T09:05:14.166Z,62.40
2024-01-06T09:10:20.745Z,62.84
2024-01-06T09:15:25.061Z,63.79
2024-01-06T09:20:29.235Z,64.92
2024-01-06T09:25:32.681Z,67.84
2024-01-06T09:30:36.052Z,71.05
2024-01-06T09:35:39.513Z,72.02
2024-01-06T09:40:45.858Z,72.72
2024-01-06T09:46:01.975Z,72.41
2024-01-06T09:51:08.805Z,74.81
2024-01-06T09:56:13.713Z,74.78
2024-01-06T10:01:18.964Z,75.73
2024-01-06T10:06:23.197Z,75.73
2024-01-06T10:11:28.054Z,75.97
2024-01-06T10:16:51.328Z,76.17
2024-01-06T10:21:55.992Z,76.21
2024-01-06T10:27:00.492Z,76.68
2024-01-06T10:32:04.623Z,76.39
2024-01-06T10:37:08.309Z,75.75
2024-01-06T10:42:13.787Z,75.78
2024-01-06T10:47:21.087Z,75.50
2024-01-06T10:52:26.023Z,76.15
2024-01-06T10:57:33.426Z,76.09
2024-01-06T11:02:37.049Z,75.85
2024-01-06T11:07:43.128Z,76.01
2024-01-06T11:12:47.466Z,75.77
2024-01-06T11:18:00.461Z,75.86
2024-01-06T11:23:22.143Z,76.18
2024-01-06T11:28:27.124Z,76.16
2024-01-06T11:33:32.084Z,76.16
2024-01-06T11:38:40.399Z,76.44
2024-01-06T11:43:44.744Z,75.54
2024-01-06T11:48:52.859Z,74.78
2024-01-06T11:53:56.962Z,74.87
2024-01-06T11:59:03.400Z,75.28
2024-01-06T12:04:07.800Z,75.66
2024-01-06T12:09:17.969Z,75.48
2024-01-06T12:14:21.505Z,75.08
2024-01-06T12:19:25.531Z,75.78
2024-01-06T12:24:30.359Z,75.85
2024-01-06T12:29:34.506Z,75.73
2024-01-06T12:34:38.855Z,75.63
2024-01-06T12:39:44.153Z,75.86
2024-01-06T12:44:47.613Z,75.56
2024-01-06T12:49:51.133Z,76.13
2024-01-06T12:54:54.693Z,76.95
2024-01-06T12:59:58.135Z,77.10
2024-01-06T13:05:01.663Z,77.20
2024-01-06T13:10:05.674Z,77.60
2024-01-06T13:15:12.834Z,77.82
2024-01-06T13:20:18.553Z,78.01
2024-01-06T13:25:23.989Z,78.06
2024-01-06T13:30:27.615Z,78.52
2024-01-06T13:35:33.779Z,78.70
2024-01-06T13:40:37.235Z,79.09
2024-01-06T13:45:43.180Z,79.40
2024-01-06T13:50:47.731Z,79.57
2024-01-06T13:55:51.876Z,79.86
2024-01-06T14:00:55.608Z,79.91
2024-01-06T14:05:59.257Z,80.36
2024-01-06T14:11:02.938Z,80.82
2024-01-06T14:16:06.739Z,80.97
2024-01-06T14:21:16.348Z,81.22
2024-01-06T14:26:22.893Z,81.42
2024-01-06T14:31:30.490Z,81.81
2024-01-06T14:36:34.147Z,82.10
2024-01-06T14:41:37.574Z,82.21
2024-01-06T14:46:42.993Z,82.58
2024-01-06T14:51:47.284Z,82.43
2024-01-06T14:56:52.223Z,82.30
2024-01-06T15:01:55.668Z,82.11
2024-01-06T15:06:59.121Z,81.94
2024-01-06T15:12:02.506Z,81.81
2024-01-06T15:17:06.292Z,81.69
2024-01-06T15:22:09.801Z,81.47
2024-01-06T15:27:13.489Z,80.97
2024-01-06T15:32:16.978Z,80.36
2024-01-06T15:37:20.341Z,80.07
2024-01-06T15:42:23.984Z,79.79
2024-01-06T15:47:28.098Z,79.93
2024-01-06T15:52:32.247Z,79.80
2024-01-06T15:57:35.679Z,79.65
2024-01-06T16:02:40.439Z,80.05
2024-01-06T16:07:44.120Z,80.02
2024-01-06T16:12:50.760Z,79.66
2024-01-06T16:17:57.355Z,79.96
2024-01-06T16:23:00.929Z,79.85
2024-01-06T16:28:04.661Z,79.66
2024-01-06T16:33:09.431Z,79.55
2024-01-06T16:38:13.495Z,79.36
2024-01-06T16:43:17.852Z,79.49
2024-01-06T16:48:21.769Z,78.96
2024-01-06T16:53:25.314Z,78.90
2024-01-06T16:58:29.292Z,78.93
2024-01-06T17:03:32.790Z,78.54
2024-01-06T17:08:38.988Z,78.48
2024-01-06T17:13:42.502Z,78.58
2024-01-06T17:18:46.210Z,78.22
2024-01-06T17:23:52.794Z,78.44
2024-01-06T17:28:56.506Z,78.59
2024-01-06T17:34:00.736Z,78.65
2024-01-06T17:39:05.501Z,78.43
2024-01-06T17:44:10.503Z,78.74
2024-01-06T17:49:15.158Z,78.66
2024-01-06T17:54:18.867Z,78.68
2024-01-06T17:59:22.477Z,78.23
2024-01-06T18:04:29.448Z,78.14
2024-01-06T18:09:33.130Z,78.12
2024-01-06T18:14:38.728Z,78.27
2024-01-06T18:19:47.746Z,78.52
2024-01-06T18:24:51.993Z,78.81
2024-01-06T18:29:56.073Z,79.24
2024-01-06T18:34:59.905Z,79.69
2024-01-06T18:40:06.144Z,79.98
2024-01-06T18:45:10.261Z,80.09
2024-01-06T18:50:14.161Z,80.48
2024-01-06T18:55:18.036Z,80.53
2024-01-06T19:00:21.764Z,80.29
2024-01-06T19:05:25.240Z,80.33
2024-01-06T19:10:29.123Z,80.39
2024-01-06T19:15:32.619Z,80.50
2024-01-06T19:20:36.959Z,80.53
2024-01-06T19:25:40.760Z,80.75
2024-01-06T19:30:44.809Z,80.89
2024-01-06T19:35:48.665Z,81.29
2024-01-06T19:40:52.494Z,81.55
2024-01-06T19:45:58.393Z,81.69
2024-01-06T19:51:04.852Z,81.80
2024-01-06T19:56:15.828Z,82.17
2024-01-06T20:01:19.674Z,82.81
2024-01-06T20:06:23.731Z,82.65
2024-01-06T20:11:27.395Z,82.68
2024-01-06T20:16:32.103Z,82.94
2024-01-06T20:21:35.887Z,82.55
2024-01-06T20:26:39.884Z,82.69
2024-01-06T20:31:43.479Z,82.95
2024-01-06T20:36:47.413Z,83.69
2024-01-06T20:41:52.154Z,83.78
2024-01-06T20:46:55.653Z,83.49
2024-01-06T20:51:59.161Z,84.09
2024-01-06T20:57:02.828Z,83.75
2024-01-06T21:02:06.966Z,83.94
2024-01-06T21:07:11.109Z,83.20
2024-01-06T21:12:14.551Z,83.52
2024-01-06T21:17:18.049Z,83.60
2024-01-06T21:22:22.786Z,83.06
2024-01-06T21:27:27.165Z,83.84
2024-01-06T21:32:30.506Z,83.62
2024-01-06T21:37:35.644Z,83.93
2024-01-06T21:42:43.113Z,84.11
2024-01-06T21:47:48.096Z,84.31
2024-01-06T21:52:53.152Z,84.00
2024-01-06T21:57:58.273Z,83.86
2024-01-06T22:03:01.704Z,83.98
2024-01-06T22:08:06.090Z,83.72
2024-01-06T22:13:09.467Z,83.80
2024-01-06T22:18:13.264Z,83.69
2024-01-06T22:23:17.138Z,83.78
2024-01-06T22:28:20.659Z,84.00
2024-01-06T22:33:24.735Z,84.10
2024-01-06T22:38:32.565Z,83.98
2024-01-06T22:43:40.863Z,84.21
2024-01-06T22:48:44.856Z,84.60
2024-01-06T22:53:48.746Z,84.72
2024-01-06T22:58:52.152Z,84.44
2024-01-06T23:03:56.419Z,84.51
2024-01-06T23:09:00.064Z,84.51
2024-01-06T23:14:03.748Z,84.48
2024-01-06T23:19:07.469Z,84.92
2024-01-06T23:24:11.715Z,84.98
2024-01-06T23:29:15.074Z,84.40
2024-01-06T23:34:26.732Z,84.32
2024-01-06T23:39:38.126Z,84.53
2024-01-06T23:44:41.956Z,84.54
2024-01-06T23:49:45.672Z,84.78
2024-01-06T23:54:49.423Z,84.50
2024-01-06T23:59:52.965Z,84.06
